sensor_id;sensor_type;location;lat;lon;timestamp;P1;durP1;ratioP1;P2;durP2;ratioP2
10651;SDS011;5374;42.742;23.266;2022-09-17T00:01:38;6.67;;;4.80;;
10651;SDS011;5374;42.742;23.266;2022-09-17T00:04:25;7.57;;;4.10;;
10651;SDS011;5374;42.742;23.266;2022-09-17T00:07:13;6.73;;;4.10;;
10651;SDS011;5374;42.742;23.266;2022-09-17T00:10:01;6.53;;;4.30;;
10651;SDS011;5374;42.742;23.266;2022-09-17T00:12:49;7.80;;;4.40;;
10651;SDS011;5374;42.742;23.266;2022-09-17T00:15:38;7.83;;;4.53;;
10651;SDS011;5374;42.742;23.266;2022-09-17T00:18:28;7.03;;;4.10;;
10651;SDS011;5374;42.742;23.266;2022-09-17T00:21:15;6.60;;;4.27;;
10651;SDS011;5374;42.742;23.266;2022-09-17T00:24:04;8.73;;;4.57;;
10651;SDS011;5374;42.742;23.266;2022-09-17T00:26:52;9.47;;;4.70;;
10651;SDS011;5374;42.742;23.266;2022-09-17T00:29:39;7.47;;;4.53;;
10651;SDS011;5374;42.742;23.266;2022-09-17T00:32:26;7.57;;;4.13;;
10651;SDS011;5374;42.742;23.266;2022-09-17T00:35:15;8.03;;;4.33;;
10651;SDS011;5374;42.742;23.266;2022-09-17T00:38:02;5.50;;;4.10;;
10651;SDS011;5374;42.742;23.266;2022-09-17T00:40:49;6.70;;;4.30;;
10651;SDS011;5374;42.742;23.266;2022-09-17T00:43:38;8.13;;;4.77;;
10651;SDS011;5374;42.742;23.266;2022-09-17T00:46:29;7.83;;;5.17;;
10651;SDS011;5374;42.742;23.266;2022-09-17T00:49:19;8.93;;;5.10;;
10651;SDS011;5374;42.742;23.266;2022-09-17T00:52:14;6.77;;;4.90;;
10651;SDS011;5374;42.742;23.266;2022-09-17T00:55:06;8.70;;;4.60;;
10651;SDS011;5374;42.742;23.266;2022-09-17T00:58:00;5.93;;;4.73;;
10651;SDS011;5374;42.742;23.266;2022-09-17T01:00:49;9.00;;;4.57;;
10651;SDS011;5374;42.742;23.266;2022-09-17T01:03:36;7.17;;;5.17;;
10651;SDS011;5374;42.742;23.266;2022-09-17T01:06:24;10.07;;;5.17;;
10651;SDS011;5374;42.742;23.266;2022-09-17T01:09:24;6.53;;;4.43;;
10651;SDS011;5374;42.742;23.266;2022-09-17T01:12:24;8.67;;;4.43;;
10651;SDS011;5374;42.742;23.266;2022-09-17T01:15:22;8.33;;;4.50;;
10651;SDS011;5374;42.742;23.266;2022-09-17T01:18:19;9.37;;;5.00;;
10651;SDS011;5374;42.742;23.266;2022-09-17T01:21:22;7.67;;;5.17;;
10651;SDS011;5374;42.742;23.266;2022-09-17T01:24:24;8.60;;;4.50;;
10651;SDS011;5374;42.742;23.266;2022-09-17T01:27:34;7.57;;;4.73;;
10651;SDS011;5374;42.742;23.266;2022-09-17T01:34:22;6.03;;;4.47;;
10651;SDS011;5374;42.742;23.266;2022-09-17T01:37:14;8.70;;;5.47;;
10651;SDS011;5374;42.742;23.266;2022-09-17T01:40:06;8.93;;;5.07;;
10651;SDS011;5374;42.742;23.266;2022-09-17T01:42:59;6.63;;;4.63;;
10651;SDS011;5374;42.742;23.266;2022-09-17T01:45:53;6.07;;;4.90;;
10651;SDS011;5374;42.742;23.266;2022-09-17T01:48:47;6.43;;;4.63;;
10651;SDS011;5374;42.742;23.266;2022-09-17T01:51:40;6.50;;;5.00;;
10651;SDS011;5374;42.742;23.266;2022-09-17T01:54:33;7.77;;;4.80;;
10651;SDS011;5374;42.742;23.266;2022-09-17T01:57:25;5.80;;;4.57;;
10651;SDS011;5374;42.742;23.266;2022-09-17T02:00:17;8.50;;;4.63;;
10651;SDS011;5374;42.742;23.266;2022-09-17T02:03:07;8.07;;;5.30;;
10651;SDS011;5374;42.742;23.266;2022-09-17T02:06:02;6.80;;;4.80;;
10651;SDS011;5374;42.742;23.266;2022-09-17T02:08:55;7.70;;;4.80;;
10651;SDS011;5374;42.742;23.266;2022-09-17T02:11:47;8.47;;;5.10;;
10651;SDS011;5374;42.742;23.266;2022-09-17T02:14:40;10.43;;;5.30;;
10651;SDS011;5374;42.742;23.266;2022-09-17T02:17:36;9.53;;;5.60;;
10651;SDS011;5374;42.742;23.266;2022-09-17T02:20:29;11.80;;;5.17;;
10651;SDS011;5374;42.742;23.266;2022-09-17T02:23:26;8.40;;;5.33;;
10651;SDS011;5374;42.742;23.266;2022-09-17T02:26:19;7.80;;;5.03;;
10651;SDS011;5374;42.742;23.266;2022-09-17T02:29:07;7.63;;;5.33;;
10651;SDS011;5374;42.742;23.266;2022-09-17T02:32:00;7.97;;;5.80;;
10651;SDS011;5374;42.742;23.266;2022-09-17T02:34:47;9.60;;;5.90;;
10651;SDS011;5374;42.742;23.266;2022-09-17T02:37:34;8.57;;;5.87;;
10651;SDS011;5374;42.742;23.266;2022-09-17T02:40:23;9.50;;;6.20;;
10651;SDS011;5374;42.742;23.266;2022-09-17T02:43:17;6.93;;;6.00;;
10651;SDS011;5374;42.742;23.266;2022-09-17T02:46:17;8.73;;;6.83;;
10651;SDS011;5374;42.742;23.266;2022-09-17T02:49:18;7.67;;;5.87;;
10651;SDS011;5374;42.742;23.266;2022-09-17T02:52:20;7.80;;;5.40;;
10651;SDS011;5374;42.742;23.266;2022-09-17T02:55:16;9.03;;;5.50;;
10651;SDS011;5374;42.742;23.266;2022-09-17T02:58:13;6.07;;;5.10;;
10651;SDS011;5374;42.742;23.266;2022-09-17T03:01:11;8.40;;;5.67;;
10651;SDS011;5374;42.742;23.266;2022-09-17T03:04:06;8.20;;;5.47;;
10651;SDS011;5374;42.742;23.266;2022-09-17T03:06:57;9.03;;;5.83;;
10651;SDS011;5374;42.742;23.266;2022-09-17T03:09:45;7.10;;;5.30;;
10651;SDS011;5374;42.742;23.266;2022-09-17T03:12:33;7.53;;;5.00;;
10651;SDS011;5374;42.742;23.266;2022-09-17T03:15:23;8.87;;;5.50;;
10651;SDS011;5374;42.742;23.266;2022-09-17T03:18:10;7.67;;;5.30;;
10651;SDS011;5374;42.742;23.266;2022-09-17T03:20:57;8.03;;;4.97;;
10651;SDS011;5374;42.742;23.266;2022-09-17T03:23:45;7.57;;;4.87;;
10651;SDS011;5374;42.742;23.266;2022-09-17T03:26:32;12.23;;;5.10;;
10651;SDS011;5374;42.742;23.266;2022-09-17T03:29:19;6.57;;;5.23;;
10651;SDS011;5374;42.742;23.266;2022-09-17T03:32:07;8.60;;;5.00;;
10651;SDS011;5374;42.742;23.266;2022-09-17T03:34:55;7.57;;;5.00;;
10651;SDS011;5374;42.742;23.266;2022-09-17T03:37:42;7.93;;;5.00;;
10651;SDS011;5374;42.742;23.266;2022-09-17T03:40:29;9.80;;;5.23;;
10651;SDS011;5374;42.742;23.266;2022-09-17T03:43:16;6.20;;;4.70;;
10651;SDS011;5374;42.742;23.266;2022-09-17T03:46:03;8.33;;;5.30;;
10651;SDS011;5374;42.742;23.266;2022-09-17T03:48:52;6.73;;;5.00;;
10651;SDS011;5374;42.742;23.266;2022-09-17T03:51:39;8.70;;;4.93;;
10651;SDS011;5374;42.742;23.266;2022-09-17T03:54:26;7.63;;;5.47;;
10651;SDS011;5374;42.742;23.266;2022-09-17T03:57:13;6.43;;;4.83;;
10651;SDS011;5374;42.742;23.266;2022-09-17T04:00:01;6.73;;;5.17;;
10651;SDS011;5374;42.742;23.266;2022-09-17T04:02:49;5.57;;;4.80;;
10651;SDS011;5374;42.742;23.266;2022-09-17T04:05:38;7.27;;;4.93;;
10651;SDS011;5374;42.742;23.266;2022-09-17T04:08:25;8.00;;;4.80;;
10651;SDS011;5374;42.742;23.266;2022-09-17T04:11:12;7.00;;;5.20;;
10651;SDS011;5374;42.742;23.266;2022-09-17T04:13:59;6.47;;;4.77;;
10651;SDS011;5374;42.742;23.266;2022-09-17T04:16:47;7.50;;;4.83;;
10651;SDS011;5374;42.742;23.266;2022-09-17T04:19:34;8.50;;;4.83;;
10651;SDS011;5374;42.742;23.266;2022-09-17T04:22:22;9.33;;;4.90;;
10651;SDS011;5374;42.742;23.266;2022-09-17T04:25:10;9.23;;;5.00;;
10651;SDS011;5374;42.742;23.266;2022-09-17T04:27:57;7.77;;;5.40;;
10651;SDS011;5374;42.742;23.266;2022-09-17T04:30:44;11.97;;;5.20;;
10651;SDS011;5374;42.742;23.266;2022-09-17T04:33:31;8.67;;;5.20;;
10651;SDS011;5374;42.742;23.266;2022-09-17T04:36:18;11.33;;;5.50;;
10651;SDS011;5374;42.742;23.266;2022-09-17T04:39:07;7.80;;;4.80;;
10651;SDS011;5374;42.742;23.266;2022-09-17T04:41:54;10.53;;;5.83;;
10651;SDS011;5374;42.742;23.266;2022-09-17T04:44:42;8.23;;;4.53;;
10651;SDS011;5374;42.742;23.266;2022-09-17T04:47:29;9.90;;;4.00;;
10651;SDS011;5374;42.742;23.266;2022-09-17T04:50:16;9.43;;;4.60;;
10651;SDS011;5374;42.742;23.266;2022-09-17T04:53:03;11.40;;;3.50;;
10651;SDS011;5374;42.742;23.266;2022-09-17T04:55:52;7.83;;;3.13;;
10651;SDS011;5374;42.742;23.266;2022-09-17T04:58:39;5.30;;;3.03;;
10651;SDS011;5374;42.742;23.266;2022-09-17T05:01:26;9.17;;;3.20;;
10651;SDS011;5374;42.742;23.266;2022-09-17T05:04:13;9.60;;;4.10;;
10651;SDS011;5374;42.742;23.266;2022-09-17T05:07:01;8.23;;;2.70;;
10651;SDS011;5374;42.742;23.266;2022-09-17T05:09:49;7.43;;;3.20;;
10651;SDS011;5374;42.742;23.266;2022-09-17T05:12:38;5.60;;;2.43;;
10651;SDS011;5374;42.742;23.266;2022-09-17T05:15:25;10.70;;;3.00;;
10651;SDS011;5374;42.742;23.266;2022-09-17T05:18:13;8.57;;;3.10;;
10651;SDS011;5374;42.742;23.266;2022-09-17T05:21:00;6.83;;;3.30;;
10651;SDS011;5374;42.742;23.266;2022-09-17T05:23:47;10.17;;;3.33;;
10651;SDS011;5374;42.742;23.266;2022-09-17T05:26:35;7.90;;;2.90;;
10651;SDS011;5374;42.742;23.266;2022-09-17T05:29:23;8.00;;;2.93;;
10651;SDS011;5374;42.742;23.266;2022-09-17T05:32:11;6.47;;;3.37;;
10651;SDS011;5374;42.742;23.266;2022-09-17T05:34:58;6.30;;;2.63;;
10651;SDS011;5374;42.742;23.266;2022-09-17T05:37:45;7.10;;;2.63;;
10651;SDS011;5374;42.742;23.266;2022-09-17T05:40:32;7.30;;;2.90;;
10651;SDS011;5374;42.742;23.266;2022-09-17T05:43:19;6.90;;;3.00;;
10651;SDS011;5374;42.742;23.266;2022-09-17T05:46:08;7.93;;;3.00;;
10651;SDS011;5374;42.742;23.266;2022-09-17T05:48:57;8.20;;;2.80;;
10651;SDS011;5374;42.742;23.266;2022-09-17T05:51:44;7.97;;;3.13;;
10651;SDS011;5374;42.742;23.266;2022-09-17T05:54:31;9.23;;;3.43;;
10651;SDS011;5374;42.742;23.266;2022-09-17T05:57:18;8.47;;;3.70;;
10651;SDS011;5374;42.742;23.266;2022-09-17T06:00:06;8.77;;;3.90;;
10651;SDS011;5374;42.742;23.266;2022-09-17T06:02:56;8.00;;;3.53;;
10651;SDS011;5374;42.742;23.266;2022-09-17T06:05:43;9.17;;;3.73;;
10651;SDS011;5374;42.742;23.266;2022-09-17T06:08:39;6.63;;;3.77;;
10651;SDS011;5374;42.742;23.266;2022-09-17T06:11:26;9.97;;;3.50;;
10651;SDS011;5374;42.742;23.266;2022-09-17T06:14:13;9.00;;;3.93;;
10651;SDS011;5374;42.742;23.266;2022-09-17T06:17:01;7.33;;;3.90;;
10651;SDS011;5374;42.742;23.266;2022-09-17T06:19:49;9.13;;;3.87;;
10651;SDS011;5374;42.742;23.266;2022-09-17T06:22:36;9.47;;;4.00;;
10651;SDS011;5374;42.742;23.266;2022-09-17T06:25:23;8.93;;;4.30;;
10651;SDS011;5374;42.742;23.266;2022-09-17T06:28:11;11.70;;;3.90;;
10651;SDS011;5374;42.742;23.266;2022-09-17T06:30:59;11.20;;;4.73;;
10651;SDS011;5374;42.742;23.266;2022-09-17T06:33:46;8.47;;;4.00;;
10651;SDS011;5374;42.742;23.266;2022-09-17T06:36:35;7.87;;;3.10;;
10651;SDS011;5374;42.742;23.266;2022-09-17T06:39:22;5.83;;;2.83;;
10651;SDS011;5374;42.742;23.266;2022-09-17T06:42:09;9.23;;;2.97;;
10651;SDS011;5374;42.742;23.266;2022-09-17T06:44:56;8.20;;;3.13;;
10651;SDS011;5374;42.742;23.266;2022-09-17T06:47:43;6.30;;;2.93;;
10651;SDS011;5374;42.742;23.266;2022-09-17T06:50:31;7.30;;;3.10;;
10651;SDS011;5374;42.742;23.266;2022-09-17T06:53:19;4.83;;;2.80;;
10651;SDS011;5374;42.742;23.266;2022-09-17T06:56:07;8.13;;;3.50;;
10651;SDS011;5374;42.742;23.266;2022-09-17T06:58:54;8.97;;;3.60;;
10651;SDS011;5374;42.742;23.266;2022-09-17T07:01:42;7.33;;;4.50;;
10651;SDS011;5374;42.742;23.266;2022-09-17T07:04:29;6.80;;;4.00;;
10651;SDS011;5374;42.742;23.266;2022-09-17T07:07:16;7.80;;;4.07;;
10651;SDS011;5374;42.742;23.266;2022-09-17T07:10:05;10.60;;;4.50;;
10651;SDS011;5374;42.742;23.266;2022-09-17T07:12:53;9.90;;;3.67;;
10651;SDS011;5374;42.742;23.266;2022-09-17T07:15:40;8.17;;;3.67;;
10651;SDS011;5374;42.742;23.266;2022-09-17T07:18:27;7.00;;;3.20;;
10651;SDS011;5374;42.742;23.266;2022-09-17T07:21:15;7.43;;;3.07;;
10651;SDS011;5374;42.742;23.266;2022-09-17T07:24:02;8.80;;;2.80;;
10651;SDS011;5374;42.742;23.266;2022-09-17T07:26:51;5.33;;;2.30;;
10651;SDS011;5374;42.742;23.266;2022-09-17T07:29:38;7.13;;;2.50;;
10651;SDS011;5374;42.742;23.266;2022-09-17T07:32:27;5.37;;;2.43;;
10651;SDS011;5374;42.742;23.266;2022-09-17T07:35:15;5.60;;;2.43;;
10651;SDS011;5374;42.742;23.266;2022-09-17T07:38:02;6.37;;;2.03;;
10651;SDS011;5374;42.742;23.266;2022-09-17T07:40:54;5.50;;;1.80;;
10651;SDS011;5374;42.742;23.266;2022-09-17T07:43:43;4.80;;;2.80;;
10651;SDS011;5374;42.742;23.266;2022-09-17T07:46:31;6.73;;;2.77;;
10651;SDS011;5374;42.742;23.266;2022-09-17T07:49:18;8.00;;;2.30;;
10651;SDS011;5374;42.742;23.266;2022-09-17T07:52:05;5.43;;;2.30;;
10651;SDS011;5374;42.742;23.266;2022-09-17T07:54:52;7.00;;;2.40;;
10651;SDS011;5374;42.742;23.266;2022-09-17T07:57:40;6.37;;;2.40;;
10651;SDS011;5374;42.742;23.266;2022-09-17T08:00:28;9.77;;;2.50;;
10651;SDS011;5374;42.742;23.266;2022-09-17T08:03:15;5.17;;;2.13;;
10651;SDS011;5374;42.742;23.266;2022-09-17T08:06:03;4.77;;;2.00;;
10651;SDS011;5374;42.742;23.266;2022-09-17T08:08:51;5.90;;;1.80;;
10651;SDS011;5374;42.742;23.266;2022-09-17T08:11:38;4.37;;;1.70;;
10651;SDS011;5374;42.742;23.266;2022-09-17T08:14:25;4.17;;;1.37;;
10651;SDS011;5374;42.742;23.266;2022-09-17T08:17:14;3.53;;;1.60;;
10651;SDS011;5374;42.742;23.266;2022-09-17T08:20:01;2.90;;;1.40;;
10651;SDS011;5374;42.742;23.266;2022-09-17T08:22:48;2.57;;;1.40;;
10651;SDS011;5374;42.742;23.266;2022-09-17T08:25:35;3.57;;;1.40;;
10651;SDS011;5374;42.742;23.266;2022-09-17T08:28:23;3.57;;;1.30;;
10651;SDS011;5374;42.742;23.266;2022-09-17T08:31:11;3.70;;;1.30;;
10651;SDS011;5374;42.742;23.266;2022-09-17T08:33:59;2.83;;;1.30;;
10651;SDS011;5374;42.742;23.266;2022-09-17T08:36:46;2.13;;;1.23;;
10651;SDS011;5374;42.742;23.266;2022-09-17T08:39:33;2.60;;;1.00;;
10651;SDS011;5374;42.742;23.266;2022-09-17T08:42:22;3.10;;;1.50;;
10651;SDS011;5374;42.742;23.266;2022-09-17T08:45:17;4.70;;;1.60;;
10651;SDS011;5374;42.742;23.266;2022-09-17T08:48:04;3.20;;;1.30;;
10651;SDS011;5374;42.742;23.266;2022-09-17T08:50:56;2.43;;;1.37;;
10651;SDS011;5374;42.742;23.266;2022-09-17T08:53:46;2.03;;;1.40;;
10651;SDS011;5374;42.742;23.266;2022-09-17T08:56:44;4.37;;;1.27;;
10651;SDS011;5374;42.742;23.266;2022-09-17T08:59:35;3.27;;;1.33;;
10651;SDS011;5374;42.742;23.266;2022-09-17T09:02:36;2.87;;;1.40;;
10651;SDS011;5374;42.742;23.266;2022-09-17T09:05:37;3.20;;;1.60;;
10651;SDS011;5374;42.742;23.266;2022-09-17T09:08:31;3.03;;;1.47;;
10651;SDS011;5374;42.742;23.266;2022-09-17T09:11:22;1.67;;;1.00;;
10651;SDS011;5374;42.742;23.266;2022-09-17T09:14:15;4.07;;;1.43;;
10651;SDS011;5374;42.742;23.266;2022-09-17T09:20:50;4.17;;;1.50;;
10651;SDS011;5374;42.742;23.266;2022-09-17T09:23:43;3.50;;;1.70;;
10651;SDS011;5374;42.742;23.266;2022-09-17T09:26:39;8.10;;;1.97;;
10651;SDS011;5374;42.742;23.266;2022-09-17T09:29:34;5.93;;;2.30;;
10651;SDS011;5374;42.742;23.266;2022-09-17T09:32:32;4.60;;;2.40;;
10651;SDS011;5374;42.742;23.266;2022-09-17T09:35:27;5.63;;;2.40;;
10651;SDS011;5374;42.742;23.266;2022-09-17T09:38:19;6.87;;;2.07;;
10651;SDS011;5374;42.742;23.266;2022-09-17T09:41:18;3.97;;;1.97;;
10651;SDS011;5374;42.742;23.266;2022-09-17T09:44:11;3.77;;;1.80;;
10651;SDS011;5374;42.742;23.266;2022-09-17T09:47:02;2.47;;;1.70;;
10651;SDS011;5374;42.742;23.266;2022-09-17T09:50:03;5.07;;;2.10;;
10651;SDS011;5374;42.742;23.266;2022-09-17T09:53:04;4.73;;;2.30;;
10651;SDS011;5374;42.742;23.266;2022-09-17T09:56:08;3.30;;;2.30;;
10651;SDS011;5374;42.742;23.266;2022-09-17T09:59:08;6.37;;;2.50;;
10651;SDS011;5374;42.742;23.266;2022-09-17T10:01:57;5.37;;;2.80;;
10651;SDS011;5374;42.742;23.266;2022-09-17T10:04:44;4.90;;;2.00;;
10651;SDS011;5374;42.742;23.266;2022-09-17T10:07:32;5.53;;;2.07;;
10651;SDS011;5374;42.742;23.266;2022-09-17T10:10:29;5.93;;;2.10;;
10651;SDS011;5374;42.742;23.266;2022-09-17T10:13:16;5.50;;;2.10;;
10651;SDS011;5374;42.742;23.266;2022-09-17T10:16:17;7.07;;;2.47;;
10651;SDS011;5374;42.742;23.266;2022-09-17T10:19:11;5.17;;;2.40;;
10651;SDS011;5374;42.742;23.266;2022-09-17T10:21:59;7.90;;;2.43;;
10651;SDS011;5374;42.742;23.266;2022-09-17T10:25:13;8.60;;;2.50;;
10651;SDS011;5374;42.742;23.266;2022-09-17T10:28:19;6.00;;;2.60;;
10651;SDS011;5374;42.742;23.266;2022-09-17T10:31:13;4.33;;;2.10;;
10651;SDS011;5374;42.742;23.266;2022-09-17T10:34:02;4.30;;;2.37;;
10651;SDS011;5374;42.742;23.266;2022-09-17T10:36:50;3.77;;;2.20;;
10651;SDS011;5374;42.742;23.266;2022-09-17T10:39:38;7.60;;;2.30;;
10651;SDS011;5374;42.742;23.266;2022-09-17T10:42:28;4.53;;;2.20;;
10651;SDS011;5374;42.742;23.266;2022-09-17T10:45:22;4.00;;;2.20;;
10651;SDS011;5374;42.742;23.266;2022-09-17T10:48:12;4.90;;;1.97;;
10651;SDS011;5374;42.742;23.266;2022-09-17T10:51:06;4.20;;;2.07;;
10651;SDS011;5374;42.742;23.266;2022-09-17T10:54:13;4.57;;;2.33;;
10651;SDS011;5374;42.742;23.266;2022-09-17T10:57:14;4.03;;;2.17;;
10651;SDS011;5374;42.742;23.266;2022-09-17T11:00:10;7.47;;;2.20;;
10651;SDS011;5374;42.742;23.266;2022-09-17T11:03:21;9.03;;;1.70;;
10651;SDS011;5374;42.742;23.266;2022-09-17T11:06:38;4.60;;;2.20;;
10651;SDS011;5374;42.742;23.266;2022-09-17T11:09:47;3.67;;;2.40;;
10651;SDS011;5374;42.742;23.266;2022-09-17T11:12:43;7.17;;;2.80;;
10651;SDS011;5374;42.742;23.266;2022-09-17T11:15:47;5.83;;;2.00;;
10651;SDS011;5374;42.742;23.266;2022-09-17T11:18:48;8.70;;;2.20;;
10651;SDS011;5374;42.742;23.266;2022-09-17T11:21:48;3.57;;;1.87;;
10651;SDS011;5374;42.742;23.266;2022-09-17T11:24:45;6.57;;;1.97;;
10651;SDS011;5374;42.742;23.266;2022-09-17T11:28:00;2.67;;;2.33;;
10651;SDS011;5374;42.742;23.266;2022-09-17T11:31:02;5.27;;;2.50;;
10651;SDS011;5374;42.742;23.266;2022-09-17T11:37:17;3.77;;;1.90;;
10651;SDS011;5374;42.742;23.266;2022-09-17T11:40:11;4.90;;;2.40;;
10651;SDS011;5374;42.742;23.266;2022-09-17T11:43:04;3.43;;;2.10;;
10651;SDS011;5374;42.742;23.266;2022-09-17T11:46:01;3.27;;;2.20;;
10651;SDS011;5374;42.742;23.266;2022-09-17T11:48:54;5.13;;;1.83;;
10651;SDS011;5374;42.742;23.266;2022-09-17T11:51:47;4.73;;;2.10;;
10651;SDS011;5374;42.742;23.266;2022-09-17T11:54:39;2.90;;;1.90;;
10651;SDS011;5374;42.742;23.266;2022-09-17T11:57:34;4.53;;;1.77;;
10651;SDS011;5374;42.742;23.266;2022-09-17T12:00:24;2.73;;;1.27;;
10651;SDS011;5374;42.742;23.266;2022-09-17T12:03:17;2.30;;;1.63;;
10651;SDS011;5374;42.742;23.266;2022-09-17T12:06:12;2.37;;;1.37;;
10651;SDS011;5374;42.742;23.266;2022-09-17T12:09:04;1.87;;;1.43;;
10651;SDS011;5374;42.742;23.266;2022-09-17T12:11:59;2.80;;;1.23;;
10651;SDS011;5374;42.742;23.266;2022-09-17T12:14:53;3.83;;;1.00;;
10651;SDS011;5374;42.742;23.266;2022-09-17T12:17:45;2.50;;;1.00;;
10651;SDS011;5374;42.742;23.266;2022-09-17T12:20:41;3.50;;;1.17;;
10651;SDS011;5374;42.742;23.266;2022-09-17T12:23:35;2.23;;;1.03;;
10651;SDS011;5374;42.742;23.266;2022-09-17T12:26:29;3.43;;;1.37;;
10651;SDS011;5374;42.742;23.266;2022-09-17T12:29:33;4.33;;;1.30;;
10651;SDS011;5374;42.742;23.266;2022-09-17T12:32:35;2.93;;;1.43;;
10651;SDS011;5374;42.742;23.266;2022-09-17T12:39:14;2.90;;;1.50;;
10651;SDS011;5374;42.742;23.266;2022-09-17T12:42:24;4.40;;;1.87;;
10651;SDS011;5374;42.742;23.266;2022-09-17T12:45:28;3.27;;;1.90;;
10651;SDS011;5374;42.742;23.266;2022-09-17T12:48:32;3.63;;;1.50;;
10651;SDS011;5374;42.742;23.266;2022-09-17T12:51:38;2.10;;;1.67;;
10651;SDS011;5374;42.742;23.266;2022-09-17T12:54:40;2.83;;;1.40;;
10651;SDS011;5374;42.742;23.266;2022-09-17T12:57:36;3.13;;;1.30;;
10651;SDS011;5374;42.742;23.266;2022-09-17T13:00:34;2.23;;;1.20;;
10651;SDS011;5374;42.742;23.266;2022-09-17T13:03:25;3.17;;;1.20;;
10651;SDS011;5374;42.742;23.266;2022-09-17T13:06:33;1.53;;;1.00;;
10651;SDS011;5374;42.742;23.266;2022-09-17T13:09:50;1.50;;;1.13;;
10651;SDS011;5374;42.742;23.266;2022-09-17T13:12:52;3.63;;;1.30;;
10651;SDS011;5374;42.742;23.266;2022-09-17T13:15:47;4.30;;;1.50;;
10651;SDS011;5374;42.742;23.266;2022-09-17T13:18:45;1.97;;;1.10;;
10651;SDS011;5374;42.742;23.266;2022-09-17T13:21:42;2.10;;;1.03;;
10651;SDS011;5374;42.742;23.266;2022-09-17T13:24:35;2.97;;;1.30;;
10651;SDS011;5374;42.742;23.266;2022-09-17T13:27:23;2.77;;;1.67;;
10651;SDS011;5374;42.742;23.266;2022-09-17T13:30:12;2.60;;;1.40;;
10651;SDS011;5374;42.742;23.266;2022-09-17T13:33:02;3.07;;;1.30;;
10651;SDS011;5374;42.742;23.266;2022-09-17T13:35:50;3.97;;;1.47;;
10651;SDS011;5374;42.742;23.266;2022-09-17T13:38:39;1.87;;;1.10;;
10651;SDS011;5374;42.742;23.266;2022-09-17T13:41:28;3.60;;;1.20;;
10651;SDS011;5374;42.742;23.266;2022-09-17T13:44:19;2.20;;;1.43;;
10651;SDS011;5374;42.742;23.266;2022-09-17T13:47:12;3.07;;;1.73;;
10651;SDS011;5374;42.742;23.266;2022-09-17T13:50:05;4.57;;;1.33;;
10651;SDS011;5374;42.742;23.266;2022-09-17T13:52:54;4.87;;;1.70;;
10651;SDS011;5374;42.742;23.266;2022-09-17T13:55:42;4.33;;;1.50;;
10651;SDS011;5374;42.742;23.266;2022-09-17T13:58:33;5.97;;;3.00;;
10651;SDS011;5374;42.742;23.266;2022-09-17T14:01:54;4.60;;;1.80;;
10651;SDS011;5374;42.742;23.266;2022-09-17T14:04:46;2.77;;;1.43;;
10651;SDS011;5374;42.742;23.266;2022-09-17T14:07:40;3.77;;;1.80;;
10651;SDS011;5374;42.742;23.266;2022-09-17T14:10:34;4.13;;;2.10;;
10651;SDS011;5374;42.742;23.266;2022-09-17T14:13:40;5.07;;;3.20;;
10651;SDS011;5374;42.742;23.266;2022-09-17T14:16:44;6.47;;;3.30;;
10651;SDS011;5374;42.742;23.266;2022-09-17T14:19:37;3.27;;;2.33;;
10651;SDS011;5374;42.742;23.266;2022-09-17T14:22:32;6.53;;;2.57;;
10651;SDS011;5374;42.742;23.266;2022-09-17T14:25:21;4.83;;;3.60;;
10651;SDS011;5374;42.742;23.266;2022-09-17T14:28:17;6.30;;;4.03;;
10651;SDS011;5374;42.742;23.266;2022-09-17T14:31:16;3.83;;;2.70;;
10651;SDS011;5374;42.742;23.266;2022-09-17T14:34:08;2.37;;;1.80;;
10651;SDS011;5374;42.742;23.266;2022-09-17T14:37:03;2.10;;;1.27;;
10651;SDS011;5374;42.742;23.266;2022-09-17T14:39:58;4.20;;;1.50;;
10651;SDS011;5374;42.742;23.266;2022-09-17T14:42:47;3.47;;;1.67;;
10651;SDS011;5374;42.742;23.266;2022-09-17T14:45:39;3.37;;;1.70;;
10651;SDS011;5374;42.742;23.266;2022-09-17T14:48:29;2.47;;;1.70;;
10651;SDS011;5374;42.742;23.266;2022-09-17T14:51:25;6.03;;;1.70;;
10651;SDS011;5374;42.742;23.266;2022-09-17T14:54:15;2.47;;;1.57;;
10651;SDS011;5374;42.742;23.266;2022-09-17T14:57:09;3.17;;;2.00;;
10651;SDS011;5374;42.742;23.266;2022-09-17T15:00:14;3.97;;;1.70;;
10651;SDS011;5374;42.742;23.266;2022-09-17T15:03:03;6.37;;;1.90;;
10651;SDS011;5374;42.742;23.266;2022-09-17T15:05:51;3.53;;;1.77;;
10651;SDS011;5374;42.742;23.266;2022-09-17T15:08:43;2.87;;;2.07;;
10651;SDS011;5374;42.742;23.266;2022-09-17T15:11:32;3.87;;;1.80;;
10651;SDS011;5374;42.742;23.266;2022-09-17T15:14:26;6.67;;;2.03;;
10651;SDS011;5374;42.742;23.266;2022-09-17T15:17:16;4.23;;;1.90;;
10651;SDS011;5374;42.742;23.266;2022-09-17T15:20:05;4.23;;;2.33;;
10651;SDS011;5374;42.742;23.266;2022-09-17T15:23:02;2.63;;;1.80;;
10651;SDS011;5374;42.742;23.266;2022-09-17T15:25:56;2.10;;;1.50;;
10651;SDS011;5374;42.742;23.266;2022-09-17T15:28:45;5.23;;;1.63;;
10651;SDS011;5374;42.742;23.266;2022-09-17T15:31:32;3.63;;;1.53;;
10651;SDS011;5374;42.742;23.266;2022-09-17T15:34:23;5.17;;;1.80;;
10651;SDS011;5374;42.742;23.266;2022-09-17T15:37:15;4.93;;;2.07;;
10651;SDS011;5374;42.742;23.266;2022-09-17T15:40:10;4.47;;;1.80;;
10651;SDS011;5374;42.742;23.266;2022-09-17T15:43:02;2.73;;;1.80;;
10651;SDS011;5374;42.742;23.266;2022-09-17T15:45:51;2.03;;;1.50;;
10651;SDS011;5374;42.742;23.266;2022-09-17T15:48:39;4.20;;;1.70;;
10651;SDS011;5374;42.742;23.266;2022-09-17T15:51:28;49.87;;;19.73;;
10651;SDS011;5374;42.742;23.266;2022-09-17T15:54:26;10.67;;;4.43;;
10651;SDS011;5374;42.742;23.266;2022-09-17T15:57:14;4.77;;;2.23;;
10651;SDS011;5374;42.742;23.266;2022-09-17T16:00:06;6.30;;;1.50;;
10651;SDS011;5374;42.742;23.266;2022-09-17T16:03:08;8.80;;;3.83;;
10651;SDS011;5374;42.742;23.266;2022-09-17T16:06:44;3.03;;;1.67;;
10651;SDS011;5374;42.742;23.266;2022-09-17T16:09:35;3.53;;;1.40;;
10651;SDS011;5374;42.742;23.266;2022-09-17T16:12:27;2.97;;;1.20;;
10651;SDS011;5374;42.742;23.266;2022-09-17T16:15:14;2.60;;;1.40;;
10651;SDS011;5374;42.742;23.266;2022-09-17T16:18:03;4.97;;;1.70;;
10651;SDS011;5374;42.742;23.266;2022-09-17T16:20:50;4.47;;;1.50;;
10651;SDS011;5374;42.742;23.266;2022-09-17T16:23:39;2.33;;;1.67;;
10651;SDS011;5374;42.742;23.266;2022-09-17T16:26:27;2.53;;;1.40;;
10651;SDS011;5374;42.742;23.266;2022-09-17T16:29:16;2.97;;;1.73;;
10651;SDS011;5374;42.742;23.266;2022-09-17T16:32:06;3.17;;;1.80;;
10651;SDS011;5374;42.742;23.266;2022-09-17T16:34:54;2.77;;;1.47;;
10651;SDS011;5374;42.742;23.266;2022-09-17T16:37:41;2.63;;;1.70;;
10651;SDS011;5374;42.742;23.266;2022-09-17T16:40:32;4.37;;;1.63;;
10651;SDS011;5374;42.742;23.266;2022-09-17T16:43:20;3.40;;;1.40;;
10651;SDS011;5374;42.742;23.266;2022-09-17T16:46:09;2.73;;;1.80;;
10651;SDS011;5374;42.742;23.266;2022-09-17T16:48:56;3.70;;;2.00;;
10651;SDS011;5374;42.742;23.266;2022-09-17T16:51:47;4.43;;;2.30;;
10651;SDS011;5374;42.742;23.266;2022-09-17T16:54:35;3.43;;;2.00;;
10651;SDS011;5374;42.742;23.266;2022-09-17T16:57:23;4.03;;;2.10;;
10651;SDS011;5374;42.742;23.266;2022-09-17T17:00:11;3.40;;;1.80;;
10651;SDS011;5374;42.742;23.266;2022-09-17T17:03:02;2.17;;;1.60;;
10651;SDS011;5374;42.742;23.266;2022-09-17T17:05:51;5.10;;;1.83;;
10651;SDS011;5374;42.742;23.266;2022-09-17T17:08:38;3.53;;;1.80;;
10651;SDS011;5374;42.742;23.266;2022-09-17T17:11:25;3.27;;;2.30;;
10651;SDS011;5374;42.742;23.266;2022-09-17T17:14:14;3.93;;;2.37;;
10651;SDS011;5374;42.742;23.266;2022-09-17T17:17:02;3.73;;;2.37;;
10651;SDS011;5374;42.742;23.266;2022-09-17T17:19:49;5.00;;;4.27;;
10651;SDS011;5374;42.742;23.266;2022-09-17T17:22:37;5.77;;;3.83;;
10651;SDS011;5374;42.742;23.266;2022-09-17T17:25:25;11.33;;;7.93;;
10651;SDS011;5374;42.742;23.266;2022-09-17T17:28:13;5.70;;;3.90;;
10651;SDS011;5374;42.742;23.266;2022-09-17T17:31:01;5.60;;;4.10;;